createdAt,value
2018-12-09T00:00:35.592Z,9.30
2018-12-09T00:03:02.797Z,9.30
2018-12-09T00:05:29.296Z,9.40
2018-12-09T00:07:55.532Z,9.50
2018-12-09T00:10:21.803Z,9.60
2018-12-09T00:12:48.113Z,9.60
2018-12-09T00:15:14.398Z,9.70
2018-12-09T00:17:40.624Z,9.70
2018-12-09T00:20:06.900Z,9.70
2018-12-09T00:25:27.174Z,9.60
2018-12-09T00:27:53.286Z,9.60
2018-12-09T00:30:19.462Z,9.60
2018-12-09T00:32:45.722Z,9.60
2018-12-09T00:35:11.968Z,9.60
2018-12-09T00:37:38.321Z,9.70
2018-12-09T00:40:04.736Z,9.70
2018-12-09T00:42:30.951Z,9.80
2018-12-09T00:44:57.211Z,9.80
2018-12-09T00:47:23.530Z,9.70
2018-12-09T00:49:49.896Z,9.70
2018-12-09T00:52:15.995Z,9.70
2018-12-09T00:54:42.194Z,9.70
2018-12-09T00:57:19.453Z,9.80
2018-12-09T00:59:45.850Z,9.80
2018-12-09T01:02:12.319Z,9.70
2018-12-09T01:04:39.079Z,9.60
2018-12-09T01:07:05.622Z,9.60
2018-12-09T01:09:31.776Z,9.60
2018-12-09T01:11:57.940Z,9.50
2018-12-09T01:14:24.295Z,9.50
2018-12-09T01:16:50.601Z,9.40
2018-12-09T01:19:23.566Z,9.40
2018-12-09T01:21:49.846Z,9.40
2018-12-09T01:24:16.260Z,9.40
2018-12-09T01:26:42.375Z,9.50
2018-12-09T01:29:08.581Z,9.50
2018-12-09T01:31:34.814Z,9.50
2018-12-09T01:34:00.999Z,9.50
2018-12-09T01:36:27.479Z,9.50
2018-12-09T01:38:53.576Z,9.40
2018-12-09T01:41:27.015Z,9.50
2018-12-09T01:43:53.199Z,9.60
2018-12-09T01:46:19.333Z,9.70
2018-12-09T01:48:45.631Z,9.80
2018-12-09T01:51:11.867Z,9.80
2018-12-09T01:53:50.344Z,9.80
2018-12-09T01:56:17.603Z,9.80
2018-12-09T01:58:46.328Z,9.70
2018-12-09T02:01:12.605Z,9.60
2018-12-09T02:03:38.789Z,9.40
2018-12-09T02:06:06.006Z,9.40
2018-12-09T02:08:32.267Z,9.30
2018-12-09T02:10:58.901Z,9.20
2018-12-09T02:13:25.054Z,9.20
2018-12-09T02:15:55.563Z,9.10
2018-12-09T02:18:22.913Z,9.10
2018-12-09T02:20:49.202Z,9.10
2018-12-09T02:23:15.571Z,9.10
2018-12-09T02:25:41.989Z,9.10
2018-12-09T02:28:08.187Z,9.10
2018-12-09T02:30:34.439Z,9.10
2018-12-09T02:33:05.549Z,9.10
2018-12-09T02:35:35.678Z,9.10
2018-12-09T02:38:01.885Z,9.10
2018-12-09T02:40:28.042Z,9.20
2018-12-09T02:42:54.253Z,9.10
2018-12-09T02:45:21.620Z,9.20
2018-12-09T02:47:47.770Z,9.20
2018-12-09T02:50:13.946Z,9.30
2018-12-09T02:52:40.175Z,9.30
2018-12-09T02:55:06.403Z,9.30
2018-12-09T02:57:35.898Z,9.20
2018-12-09T03:00:04.223Z,9.20
2018-12-09T03:02:30.495Z,9.20
2018-12-09T03:04:56.776Z,9.20
2018-12-09T03:07:23.176Z,9.20
2018-12-09T03:09:49.302Z,9.20
2018-12-09T03:12:16.584Z,9.20
2018-12-09T03:14:47.420Z,9.20
2018-12-09T03:17:13.590Z,9.20
2018-12-09T03:19:39.751Z,9.20
2018-12-09T03:22:07.061Z,9.30
2018-12-09T03:24:33.318Z,9.20
2018-12-09T03:26:59.562Z,9.30
2018-12-09T03:29:26.343Z,9.30
2018-12-09T03:31:52.459Z,9.30
2018-12-09T03:34:18.566Z,9.30
2018-12-09T03:36:45.080Z,9.30
2018-12-09T03:39:13.448Z,9.20
2018-12-09T03:41:41.723Z,9.10
2018-12-09T03:44:08.114Z,9.00
2018-12-09T03:46:34.503Z,8.90
2018-12-09T03:49:01.086Z,8.90
2018-12-09T03:51:27.470Z,8.80
2018-12-09T03:53:53.788Z,8.80
2018-12-09T03:56:19.926Z,8.70
2018-12-09T03:58:46.099Z,8.70
2018-12-09T04:01:13.614Z,8.70
2018-12-09T04:03:39.875Z,8.70
2018-12-09T04:06:06.019Z,8.70
2018-12-09T04:08:35.918Z,8.70
2018-12-09T04:11:02.145Z,8.70
2018-12-09T04:13:28.268Z,8.70
2018-12-09T04:15:54.847Z,8.70
2018-12-09T04:18:20.967Z,8.70
2018-12-09T04:20:47.029Z,8.70
2018-12-09T04:23:13.214Z,8.70
2018-12-09T04:25:39.536Z,8.70
2018-12-09T04:28:13.790Z,8.70
2018-12-09T04:30:40.027Z,8.70
2018-12-09T04:33:06.330Z,8.60
2018-12-09T04:35:35.677Z,8.50
2018-12-09T04:38:02.035Z,8.40
2018-12-09T04:40:28.667Z,8.30
2018-12-09T04:43:06.975Z,8.30
2018-12-09T04:45:41.083Z,8.30
2018-12-09T04:48:07.393Z,8.30
2018-12-09T04:50:34.197Z,8.30
2018-12-09T04:53:00.423Z,8.30
2018-12-09T04:55:26.618Z,8.30
2018-12-09T04:57:53.037Z,8.30
2018-12-09T05:00:31.483Z,8.20
2018-12-09T05:02:57.675Z,8.30
2018-12-09T05:05:24.016Z,8.20
2018-12-09T05:07:50.207Z,8.20
2018-12-09T05:10:16.287Z,8.20
2018-12-09T05:12:42.490Z,8.20
2018-12-09T05:15:09.250Z,8.20
2018-12-09T05:17:35.454Z,8.20
2018-12-09T05:20:01.837Z,8.20
2018-12-09T05:22:27.964Z,8.20
2018-12-09T05:24:54.161Z,8.30
2018-12-09T05:27:20.569Z,8.20
2018-12-09T05:29:46.866Z,8.30
2018-12-09T05:32:14.026Z,8.30
2018-12-09T05:34:40.238Z,8.30
2018-12-09T05:37:06.606Z,8.40
2018-12-09T05:39:33.900Z,8.40
2018-12-09T05:42:00.392Z,8.30
2018-12-09T05:44:26.497Z,8.30
2018-12-09T05:46:52.716Z,8.30
2018-12-09T05:49:20.045Z,8.30
2018-12-09T05:51:46.334Z,8.30
2018-12-09T05:54:12.946Z,8.30
2018-12-09T05:56:39.040Z,8.30
2018-12-09T05:59:07.403Z,8.20
2018-12-09T06:01:33.577Z,8.20
2018-12-09T06:03:59.810Z,8.10
2018-12-09T06:06:25.932Z,8.10
2018-12-09T06:08:52.014Z,8.10
2018-12-09T06:11:18.445Z,8.10
2018-12-09T06:13:44.774Z,8.10
2018-12-09T06:16:10.975Z,8.10
2018-12-09T06:18:37.361Z,8.10
2018-12-09T06:21:03.745Z,8.10
2018-12-09T06:23:31.298Z,8.10
2018-12-09T06:26:05.287Z,8.10
2018-12-09T06:28:31.403Z,8.20
2018-12-09T06:30:57.619Z,8.20
2018-12-09T06:33:24.017Z,8.20
2018-12-09T06:35:51.702Z,8.20
2018-12-09T06:38:17.909Z,8.20
2018-12-09T06:40:44.184Z,8.30
2018-12-09T06:43:10.325Z,8.30
2018-12-09T06:45:36.444Z,8.30
2018-12-09T06:48:02.828Z,8.30
2018-12-09T06:50:29.057Z,8.40
2018-12-09T06:52:55.193Z,8.40
2018-12-09T06:55:21.372Z,8.30
2018-12-09T06:57:47.555Z,8.30
2018-12-09T07:00:13.671Z,8.30
2018-12-09T07:02:42.097Z,8.30
2018-12-09T07:05:08.576Z,8.30
2018-12-09T07:07:35.561Z,8.30
2018-12-09T07:10:04.794Z,8.30
2018-12-09T07:12:30.991Z,8.40
2018-12-09T07:14:57.196Z,8.30
2018-12-09T07:17:23.215Z,8.30
2018-12-09T07:19:49.525Z,8.40
2018-12-09T07:22:15.814Z,8.40
2018-12-09T07:24:42.012Z,8.40
2018-12-09T07:27:08.301Z,8.40
2018-12-09T07:29:35.383Z,8.40
2018-12-09T07:32:02.039Z,8.40
2018-12-09T07:34:28.225Z,8.50
2018-12-09T07:36:54.536Z,8.50
2018-12-09T07:39:24.170Z,8.60
2018-12-09T07:41:50.419Z,8.60
2018-12-09T07:44:16.638Z,8.60
2018-12-09T07:46:47.790Z,8.50
2018-12-09T07:49:17.821Z,8.60
2018-12-09T07:51:44.225Z,8.60
2018-12-09T07:54:10.546Z,8.60
2018-12-09T07:56:36.542Z,8.60
2018-12-09T07:59:03.615Z,8.70
2018-12-09T08:01:29.963Z,8.70
2018-12-09T08:03:56.101Z,8.80
2018-12-09T08:06:22.497Z,8.80
2018-12-09T08:08:48.579Z,8.80
2018-12-09T08:11:15.044Z,8.80
2018-12-09T08:13:43.509Z,8.90
2018-12-09T08:16:12.773Z,8.90
2018-12-09T08:18:39.172Z,8.90
2018-12-09T08:21:05.535Z,8.80
2018-12-09T08:23:31.608Z,8.80
2018-12-09T08:25:57.901Z,8.80
2018-12-09T08:28:24.240Z,8.70
2018-12-09T08:30:50.415Z,8.80
2018-12-09T08:33:16.616Z,8.80
2018-12-09T08:35:42.926Z,8.80
2018-12-09T08:38:11.260Z,8.80
2018-12-09T08:40:39.586Z,8.80
2018-12-09T08:43:06.861Z,8.90
2018-12-09T08:45:40.840Z,8.90
2018-12-09T08:48:08.043Z,9.00
2018-12-09T08:50:34.963Z,9.00
2018-12-09T08:53:01.117Z,9.00
2018-12-09T08:55:28.218Z,9.00
2018-12-09T08:57:54.592Z,9.00
2018-12-09T09:00:20.957Z,9.00
2018-12-09T09:02:48.101Z,9.00
2018-12-09T09:05:14.327Z,9.00
2018-12-09T09:07:40.559Z,9.00
2018-12-09T09:10:06.819Z,9.00
2018-12-09T09:12:38.276Z,9.00
2018-12-09T09:15:04.689Z,9.00
2018-12-09T09:17:33.014Z,9.00
2018-12-09T09:20:04.898Z,9.00
2018-12-09T09:22:32.116Z,9.00
2018-12-09T09:24:58.501Z,9.10
2018-12-09T09:27:24.830Z,9.00
2018-12-09T09:29:55.602Z,9.10
2018-12-09T09:32:21.964Z,9.10
2018-12-09T09:34:52.050Z,9.10
2018-12-09T09:37:28.365Z,9.10
2018-12-09T09:39:58.599Z,9.00
2018-12-09T09:42:24.806Z,9.00
2018-12-09T09:44:53.191Z,8.90
2018-12-09T09:47:19.454Z,8.90
2018-12-09T09:49:47.589Z,8.90
2018-12-09T09:52:13.751Z,8.90
2018-12-09T09:54:40.890Z,8.90
2018-12-09T09:57:08.941Z,8.90
2018-12-09T09:59:40.015Z,8.90
2018-12-09T10:02:15.575Z,9.00
2018-12-09T10:04:42.789Z,9.00
2018-12-09T10:07:09.221Z,9.00
2018-12-09T10:09:36.395Z,9.00
2018-12-09T10:12:08.096Z,9.10
2018-12-09T10:14:34.290Z,9.10
2018-12-09T10:17:00.710Z,9.10
2018-12-09T10:19:27.047Z,9.10
2018-12-09T10:21:53.456Z,9.10
2018-12-09T10:24:27.287Z,9.10
2018-12-09T10:26:53.584Z,9.10
2018-12-09T10:29:20.100Z,9.20
2018-12-09T10:31:46.440Z,9.20
2018-12-09T10:34:13.806Z,9.20
2018-12-09T10:36:41.081Z,9.20
2018-12-09T10:39:08.405Z,9.20
2018-12-09T10:41:34.590Z,9.20
2018-12-09T10:44:00.981Z,9.20
2018-12-09T10:46:27.304Z,9.20
2018-12-09T10:48:53.431Z,9.20
2018-12-09T10:51:19.454Z,9.20
2018-12-09T10:53:45.716Z,9.30
2018-12-09T10:56:12.218Z,9.30
2018-12-09T10:58:38.263Z,9.30
2018-12-09T11:01:05.795Z,9.30
2018-12-09T11:03:32.393Z,9.30
2018-12-09T11:05:58.667Z,9.30
2018-12-09T11:08:24.896Z,9.30
2018-12-09T11:10:51.019Z,9.30
2018-12-09T11:13:18.202Z,9.30
2018-12-09T11:15:47.774Z,9.30
2018-12-09T11:18:14.020Z,9.10
2018-12-09T11:20:40.845Z,9.20
2018-12-09T11:23:07.159Z,9.10
2018-12-09T11:25:33.466Z,9.20
2018-12-09T11:27:59.974Z,9.50
2018-12-09T11:30:28.349Z,9.40
2018-12-09T11:32:54.552Z,9.20
2018-12-09T11:35:21.153Z,9.10
2018-12-09T11:37:48.524Z,9.10
2018-12-09T11:40:14.706Z,9.10
2018-12-09T11:42:45.974Z,9.10
2018-12-09T11:45:13.692Z,9.10
2018-12-09T11:47:39.907Z,9.10
2018-12-09T11:50:07.248Z,9.10
2018-12-09T11:52:33.448Z,9.10
2018-12-09T11:54:59.680Z,9.10
2018-12-09T11:57:29.824Z,9.20
2018-12-09T11:59:57.183Z,9.20
2018-12-09T12:02:25.455Z,9.20
2018-12-09T12:04:52.740Z,9.20
2018-12-09T12:07:20.125Z,9.20
2018-12-09T12:09:46.730Z,9.20
2018-12-09T12:12:13.164Z,9.10
2018-12-09T12:14:50.955Z,9.10
2018-12-09T12:17:17.220Z,9.10
2018-12-09T12:19:43.599Z,9.10
2018-12-09T12:22:09.974Z,9.10
2018-12-09T12:24:36.127Z,9.00
2018-12-09T12:27:02.561Z,9.00
2018-12-09T12:29:28.860Z,9.00
2018-12-09T12:31:55.175Z,9.00
2018-12-09T12:34:22.453Z,9.00
2018-12-09T12:36:48.658Z,9.00
2018-12-09T12:39:15.282Z,9.00
2018-12-09T12:41:42.460Z,9.10
2018-12-09T12:44:10.463Z,9.00
2018-12-09T12:46:43.183Z,9.00
2018-12-09T12:49:09.438Z,9.00
2018-12-09T12:51:35.677Z,9.00
2018-12-09T12:54:01.956Z,9.00
2018-12-09T12:56:30.277Z,9.00
2018-12-09T12:58:56.610Z,9.00
2018-12-09T13:01:22.998Z,9.00
2018-12-09T13:03:49.418Z,9.00
2018-12-09T13:06:16.053Z,9.00
2018-12-09T13:08:42.390Z,9.00
2018-12-09T13:11:08.592Z,9.00
2018-12-09T13:13:34.895Z,9.00
2018-12-09T13:16:01.293Z,9.00
2018-12-09T13:18:29.758Z,9.00
2018-12-09T13:20:56.086Z,8.90
2018-12-09T13:23:24.423Z,8.90
2018-12-09T13:25:50.943Z,8.80
2018-12-09T13:28:18.508Z,8.80
2018-12-09T13:30:48.019Z,8.80
2018-12-09T13:33:14.292Z,8.80
2018-12-09T13:35:41.382Z,8.70
2018-12-09T13:38:07.698Z,8.70
2018-12-09T13:40:35.117Z,8.50
2018-12-09T13:43:02.101Z,8.30
2018-12-09T13:45:29.868Z,8.20
2018-12-09T13:47:56.742Z,8.10
2018-12-09T13:50:23.775Z,7.90
2018-12-09T13:52:50.288Z,7.60
2018-12-09T13:55:16.574Z,7.60
2018-12-09T13:57:42.848Z,7.50
2018-12-09T14:00:09.279Z,7.40
2018-12-09T14:02:36.917Z,7.40
2018-12-09T14:05:04.200Z,7.30
2018-12-09T14:07:30.894Z,7.30
2018-12-09T14:09:57.148Z,7.40
2018-12-09T14:12:27.632Z,7.40
2018-12-09T14:14:54.311Z,7.50
2018-12-09T14:17:20.645Z,7.50
2018-12-09T14:19:48.036Z,7.60
2018-12-09T14:22:16.179Z,7.60
2018-12-09T14:24:46.076Z,7.60
2018-12-09T14:27:14.929Z,7.70
2018-12-09T14:29:41.381Z,7.70
2018-12-09T14:32:08.071Z,7.80
2018-12-09T14:34:34.393Z,7.80
2018-12-09T14:37:00.884Z,7.70
2018-12-09T14:39:28.282Z,7.70
2018-12-09T14:41:56.692Z,7.70
2018-12-09T14:44:23.170Z,7.70
2018-12-09T14:46:51.810Z,7.70
2018-12-09T14:49:18.340Z,7.70
2018-12-09T14:51:46.959Z,7.70
2018-12-09T14:54:14.602Z,7.70
2018-12-09T14:56:42.890Z,7.70
2018-12-09T14:59:12.348Z,7.80
2018-12-09T15:01:41.959Z,7.80
2018-12-09T15:04:08.662Z,7.80
2018-12-09T15:06:36.915Z,7.90
2018-12-09T15:09:05.107Z,7.90
2018-12-09T15:11:31.808Z,8.00
2018-12-09T15:13:57.919Z,8.00
2018-12-09T15:16:24.236Z,8.00
2018-12-09T15:18:51.950Z,8.00
2018-12-09T15:21:19.885Z,8.00
2018-12-09T15:23:49.860Z,8.00
2018-12-09T15:26:17.596Z,8.10
2018-12-09T15:28:45.816Z,8.10
2018-12-09T15:31:12.763Z,8.10
2018-12-09T15:33:39.498Z,8.10
2018-12-09T15:36:05.853Z,8.10
2018-12-09T15:38:32.057Z,8.10
2018-12-09T15:40:58.648Z,8.00
2018-12-09T15:43:25.591Z,8.00
2018-12-09T15:45:53.885Z,8.10
2018-12-09T15:48:20.126Z,8.10
2018-12-09T15:50:47.228Z,8.00
2018-12-09T15:53:13.699Z,8.10
2018-12-09T15:55:40.243Z,8.00
2018-12-09T15:58:07.096Z,8.10
2018-12-09T16:00:35.114Z,8.10
2018-12-09T16:03:02.005Z,8.10
2018-12-09T16:05:37.431Z,8.10
2018-12-09T16:08:04.446Z,8.10
2018-12-09T16:10:31.838Z,8.00
2018-12-09T16:12:58.265Z,8.10
2018-12-09T16:15:28.982Z,8.10
2018-12-09T16:17:55.423Z,8.10
2018-12-09T16:20:24.210Z,8.10
2018-12-09T16:22:55.716Z,8.10
2018-12-09T16:25:23.818Z,8.10
2018-12-09T16:27:51.542Z,8.10
2018-12-09T16:30:18.923Z,8.10
2018-12-09T16:32:46.718Z,8.10
2018-12-09T16:35:16.110Z,8.00
2018-12-09T16:37:43.991Z,8.00
2018-12-09T16:40:13.845Z,8.10
2018-12-09T16:42:41.141Z,8.10
2018-12-09T16:45:08.799Z,8.10
2018-12-09T16:47:43.116Z,8.00
2018-12-09T16:50:10.553Z,8.00
2018-12-09T16:52:39.541Z,8.00
2018-12-09T16:55:05.989Z,8.00
2018-12-09T16:57:32.349Z,8.00
2018-12-09T17:00:01.993Z,8.00
2018-12-09T17:02:30.135Z,8.00
2018-12-09T17:04:56.568Z,8.10
2018-12-09T17:07:24.650Z,8.10
2018-12-09T17:09:51.344Z,8.10
2018-12-09T17:12:23.337Z,8.10
2018-12-09T17:14:49.557Z,8.10
2018-12-09T17:17:15.923Z,8.10
2018-12-09T17:19:42.831Z,8.00
2018-12-09T17:22:09.072Z,8.00
2018-12-09T17:24:35.388Z,8.10
2018-12-09T17:27:01.672Z,8.10
2018-12-09T17:29:27.803Z,8.10
2018-12-09T17:31:54.044Z,8.10
2018-12-09T17:34:20.649Z,8.10
2018-12-09T17:36:50.438Z,8.10
2018-12-09T17:39:17.682Z,8.10
2018-12-09T17:41:44.025Z,8.10
2018-12-09T17:44:10.363Z,8.20
2018-12-09T17:46:37.873Z,8.20
2018-12-09T17:49:04.450Z,8.20
2018-12-09T17:51:30.819Z,8.20
2018-12-09T17:53:59.273Z,8.20
2018-12-09T17:56:28.267Z,8.20
2018-12-09T17:58:56.458Z,8.10
2018-12-09T18:01:22.762Z,8.20
2018-12-09T18:03:51.123Z,8.10
2018-12-09T18:06:19.418Z,8.20
2018-12-09T18:08:46.930Z,8.20
2018-12-09T18:11:15.889Z,8.20
2018-12-09T18:13:42.375Z,8.20
2018-12-09T18:16:08.918Z,8.10
2018-12-09T18:18:36.257Z,8.10
2018-12-09T18:21:02.982Z,8.10
2018-12-09T18:23:29.752Z,8.10
2018-12-09T18:25:56.223Z,8.10
2018-12-09T18:28:27.315Z,8.10
2018-12-09T18:30:55.318Z,8.00
2018-12-09T18:33:21.803Z,8.00
2018-12-09T18:35:49.000Z,8.00
2018-12-09T18:38:15.431Z,7.90
2018-12-09T18:40:43.678Z,7.80
2018-12-09T18:43:13.277Z,7.80
2018-12-09T18:45:40.586Z,7.90
2018-12-09T18:48:07.127Z,7.90
2018-12-09T18:50:34.797Z,7.90
2018-12-09T18:53:01.677Z,7.80
2018-12-09T18:55:28.651Z,7.80
2018-12-09T18:57:55.455Z,7.80
2018-12-09T19:00:22.325Z,7.90
2018-12-09T19:02:48.777Z,7.90
2018-12-09T19:05:18.860Z,7.80
2018-12-09T19:07:46.101Z,7.90
2018-12-09T19:10:14.886Z,8.00
2018-12-09T19:12:41.845Z,8.00
2018-12-09T19:15:10.459Z,8.00
2018-12-09T19:17:36.946Z,8.00
2018-12-09T19:20:03.716Z,8.00
2018-12-09T19:22:31.057Z,8.10
2018-12-09T19:24:57.730Z,8.00
2018-12-09T19:27:24.623Z,8.10
2018-12-09T19:29:52.053Z,8.10
2018-12-09T19:32:18.954Z,8.20
2018-12-09T19:34:45.463Z,8.20
2018-12-09T19:37:13.798Z,8.30
2018-12-09T19:39:40.382Z,8.20
2018-12-09T19:42:10.714Z,8.20
2018-12-09T19:44:37.173Z,8.20
2018-12-09T19:47:03.665Z,8.20
2018-12-09T19:49:30.065Z,8.10
2018-12-09T19:51:56.508Z,8.10
2018-12-09T19:54:22.866Z,8.10
2018-12-09T19:56:49.954Z,8.10
2018-12-09T19:59:16.861Z,8.00
2018-12-09T20:01:44.336Z,8.00
2018-12-09T20:04:11.779Z,8.00
2018-12-09T20:06:38.431Z,8.00
2018-12-09T20:09:05.026Z,8.00
2018-12-09T20:11:31.239Z,8.00
2018-12-09T20:13:57.648Z,8.10
2018-12-09T20:16:24.828Z,8.10
2018-12-09T20:18:51.208Z,8.10
2018-12-09T20:21:18.534Z,8.10
2018-12-09T20:23:45.496Z,8.10
2018-12-09T20:26:11.955Z,8.00
2018-12-09T20:28:39.456Z,8.00
2018-12-09T20:31:06.673Z,8.00
2018-12-09T20:33:32.885Z,8.00
2018-12-09T20:36:00.598Z,8.00
2018-12-09T20:38:28.106Z,8.00
2018-12-09T20:40:54.692Z,8.00
2018-12-09T20:43:20.875Z,8.00
2018-12-09T20:45:47.218Z,8.00
2018-12-09T20:48:13.881Z,7.90
2018-12-09T20:50:40.560Z,7.90
2018-12-09T20:53:08.301Z,7.90
2018-12-09T20:55:35.385Z,7.70
2018-12-09T20:58:02.570Z,7.90
2018-12-09T21:00:30.152Z,7.90
2018-12-09T21:02:56.457Z,7.90
2018-12-09T21:05:23.999Z,7.90
2018-12-09T21:07:50.569Z,7.90
2018-12-09T21:10:16.972Z,7.80
2018-12-09T21:12:43.378Z,7.70
2018-12-09T21:15:09.746Z,7.70
2018-12-09T21:17:42.550Z,7.70
2018-12-09T21:20:08.958Z,7.60
2018-12-09T21:22:37.880Z,7.60
2018-12-09T21:25:04.384Z,7.50
2018-12-09T21:27:38.762Z,7.50
2018-12-09T21:30:05.155Z,7.50
2018-12-09T21:32:31.372Z,7.50
2018-12-09T21:34:58.839Z,7.50
2018-12-09T21:37:25.949Z,7.50
2018-12-09T21:39:52.354Z,7.50
2018-12-09T21:42:18.948Z,7.50
2018-12-09T21:44:45.827Z,7.50
2018-12-09T21:47:12.114Z,7.50
2018-12-09T21:49:38.635Z,7.50
2018-12-09T21:52:09.424Z,7.50
2018-12-09T21:54:36.098Z,7.50
2018-12-09T21:57:10.522Z,7.50
2018-12-09T21:59:36.966Z,7.50
2018-12-09T22:02:04.524Z,7.50
2018-12-09T22:04:31.198Z,7.50
2018-12-09T22:06:57.816Z,7.50
2018-12-09T22:09:24.119Z,7.50
2018-12-09T22:11:50.348Z,7.50
2018-12-09T22:14:17.066Z,7.50
2018-12-09T22:16:44.041Z,7.50
2018-12-09T22:19:10.955Z,7.50
2018-12-09T22:21:37.248Z,7.50
2018-12-09T22:24:04.537Z,7.40
2018-12-09T22:26:31.029Z,7.40
2018-12-09T22:28:57.211Z,7.60
2018-12-09T22:31:23.445Z,7.60
2018-12-09T22:33:50.034Z,7.60
2018-12-09T22:36:16.652Z,7.50
2018-12-09T22:38:42.969Z,7.50
2018-12-09T22:41:09.057Z,7.40
2018-12-09T22:43:36.630Z,7.40
2018-12-09T22:49:00.055Z,7.50
2018-12-09T22:51:26.353Z,7.50
2018-12-09T22:53:52.667Z,7.50
2018-12-09T22:56:19.164Z,7.50
2018-12-09T22:58:46.910Z,7.50
2018-12-09T23:01:18.380Z,7.40
2018-12-09T23:03:44.592Z,7.40
2018-12-09T23:06:10.968Z,7.40
2018-12-09T23:08:37.360Z,7.40
2018-12-09T23:11:03.803Z,7.40
2018-12-09T23:13:30.056Z,7.40
2018-12-09T23:16:06.043Z,7.40
2018-12-09T23:18:36.061Z,7.40
2018-12-09T23:21:02.307Z,7.40
2018-12-09T23:23:28.538Z,7.40
2018-12-09T23:25:54.834Z,7.40
2018-12-09T23:28:21.007Z,7.40
2018-12-09T23:30:47.346Z,7.40
2018-12-09T23:33:13.711Z,7.40
2018-12-09T23:35:39.810Z,7.40
2018-12-09T23:38:06.116Z,7.30
2018-12-09T23:40:32.474Z,7.30
2018-12-09T23:42:58.688Z,7.30
2018-12-09T23:45:25.038Z,7.30
2018-12-09T23:47:51.334Z,7.20
2018-12-09T23:50:17.793Z,7.20
2018-12-09T23:52:43.883Z,7.30
2018-12-09T23:55:10.233Z,7.30
2018-12-09T23:57:36.535Z,7.30
